Weather at Stradbally Airstrip

Public forecast

Using degrees Celsius for public forecast. Weather courtesy of forecast.io.

Closest aviation weather report (METAR) to Stradbally Airstrip

Closest report is Casement Air Base, 29.9 nm (55.4 km) ENE.

2024/05/26 16:00 (retrieved 1 hour ago)

EIME 261600Z 23010KT 9999 -SHRA FEW015 FEW018CB BKN050 13/11 Q1007

Closest aviation forecast (TAF) to Stradbally Airstrip

Closest forecast is Dublin Airport, 39.7 nm (73.6 km) NE.

2024/05/26 13:13 Ammendment (retrieved 4 hours ago)

TAF AMD EIDW 261304Z 2613/2712 07006KT 9999 FEW006 BKN022 TEMPO 2613/2616 VRB03KT TEMPO 2613/2619 -SHRA FEW018CB PROB40 TEMPO 2613/2619 4000 SHRA SCT018CB PROB30 TEMPO 2613/2618 2000 TSRA BKN012 BECMG 2615/2617 25010KT BECMG 2710/2712 21007KT